Time;durP1;ratioP1;P1;durP2;ratioP2;P2;SDS_P1;SDS_P2;PMS_P1;PMS_P2;Temp;Humidity;BMP_temperature;BMP_pressure;BME280_temperature;BME280_humidity;BME280_pressure;Samples;Min_cycle;Max_cycle;Signal;HPM_P1;HPM_P2
2021/05/24 00:01:15;;;;;;;3.97;1.42;;;12.50;99.90;;;;;;5114900;28;20012;-73
2021/05/24 00:03:41;;;;;;;3.58;1.33;;;12.50;99.90;;;;;;5114952;28;20487;-74
2021/05/24 00:06:06;;;;;;;4.55;1.27;;;12.60;99.90;;;;;;5115590;28;20081;-74
2021/05/24 00:08:32;;;;;;;2.88;1.30;;;12.60;99.90;;;;;;5115450;28;20442;-74
2021/05/24 00:10:58;;;;;;;1.35;1.05;;;12.60;99.90;;;;;;5114806;28;20106;-73
2021/05/24 00:13:24;;;;;;;1.83;1.15;;;12.50;99.90;;;;;;5115010;28;20019;-76
2021/05/24 00:15:56;;;;;;;2.42;1.58;;;12.50;99.90;;;;;;5113767;28;20055;-74
2021/05/24 00:18:22;;;;;;;2.78;1.20;;;12.50;99.90;;;;;;5115273;28;20024;-75
2021/05/24 00:20:56;;;;;;;1.85;1.15;;;12.60;99.90;;;;;;5114531;28;20023;-75
2021/05/24 00:23:23;;;;;;;4.32;1.55;;;12.60;99.90;;;;;;5114529;28;20011;-75
2021/05/24 00:25:48;;;;;;;1.30;1.20;;;12.60;99.90;;;;;;5114089;28;20416;-74
2021/05/24 00:28:15;;;;;;;1.88;1.13;;;12.50;99.90;;;;;;5114223;28;20106;-75
2021/05/24 00:30:45;;;;;;;3.28;1.20;;;12.50;99.90;;;;;;5114952;28;20100;-75
2021/05/24 00:33:11;;;;;;;10.65;1.83;;;12.60;99.90;;;;;;5114081;28;20107;-76
2021/05/24 00:35:37;;;;;;;5.45;1.30;;;12.60;99.90;;;;;;5102252;28;20127;-76
2021/05/24 00:38:04;;;;;;;3.95;1.20;;;12.50;99.90;;;;;;5103354;28;20024;-76
2021/05/24 00:40:30;;;;;;;2.20;1.30;;;12.60;99.90;;;;;;5099565;28;20024;-74
2021/05/24 00:42:56;;;;;;;1.58;1.02;;;12.60;99.90;;;;;;5104769;28;20020;-75
2021/05/24 00:45:22;;;;;;;5.55;1.10;;;12.50;99.90;;;;;;5108540;28;20054;-75
2021/05/24 00:47:48;;;;;;;2.25;1.02;;;12.60;99.90;;;;;;5099905;28;20444;-75
2021/05/24 00:50:14;;;;;;;3.10;1.27;;;12.60;99.90;;;;;;5112782;28;20026;-74
2021/05/24 00:52:40;;;;;;;4.00;1.13;;;12.60;99.90;;;;;;5113890;28;20015;-74
2021/05/24 00:55:07;;;;;;;3.45;1.20;;;12.60;99.90;;;;;;5109675;28;20032;-74
2021/05/24 00:57:34;;;;;;;1.63;0.98;;;12.60;99.90;;;;;;5102503;28;20024;-75
2021/05/24 00:59:59;;;;;;;1.77;1.02;;;12.60;99.90;;;;;;5113553;28;20023;-74
2021/05/24 01:02:25;;;;;;;2.92;1.00;;;12.60;99.90;;;;;;5114190;28;20028;-75
2021/05/24 01:04:51;;;;;;;3.58;0.98;;;12.70;99.90;;;;;;5113390;28;20024;-73
2021/05/24 01:07:17;;;;;;;1.83;0.93;;;12.60;99.90;;;;;;5113656;28;20024;-76
2021/05/24 01:09:43;;;;;;;1.38;1.20;;;12.70;99.90;;;;;;5101970;28;20030;-75
2021/05/24 01:12:09;;;;;;;1.85;0.90;;;12.70;99.90;;;;;;5106939;28;20365;-77
2021/05/24 01:14:35;;;;;;;2.35;1.10;;;12.70;99.90;;;;;;5102811;28;20023;-74
2021/05/24 01:17:01;;;;;;;1.77;0.90;;;12.70;99.90;;;;;;5111664;28;20054;-75
2021/05/24 01:19:26;;;;;;;2.88;0.60;;;12.70;99.90;;;;;;5103657;28;20038;-74
2021/05/24 01:21:52;;;;;;;1.83;1.23;;;12.70;99.90;;;;;;5118853;28;20027;-75
2021/05/24 01:24:19;;;;;;;4.03;0.98;;;12.70;99.90;;;;;;5112521;28;20550;-75
2021/05/24 01:26:45;;;;;;;1.58;1.00;;;12.70;99.90;;;;;;5112028;28;20059;-75
2021/05/24 01:29:11;;;;;;;5.07;1.10;;;12.70;99.90;;;;;;5112218;28;20103;-74
2021/05/24 01:31:38;;;;;;;1.67;0.90;;;12.70;99.90;;;;;;5112068;28;20457;-75
2021/05/24 01:34:04;;;;;;;1.95;0.95;;;12.70;99.90;;;;;;5112606;28;20517;-75
2021/05/24 01:36:30;;;;;;;1.95;1.00;;;12.70;99.90;;;;;;5112539;28;20044;-75
2021/05/24 01:38:55;;;;;;;2.28;1.10;;;12.70;99.90;;;;;;5112373;28;20356;-75
2021/05/24 01:41:21;;;;;;;2.35;0.90;;;12.70;99.90;;;;;;5112871;28;20027;-75
2021/05/24 01:43:47;;;;;;;2.50;0.88;;;12.70;99.90;;;;;;5112640;28;20114;-75
2021/05/24 01:46:14;;;;;;;2.67;1.10;;;12.70;99.90;;;;;;5109942;28;20054;-75
2021/05/24 01:48:41;;;;;;;3.72;0.90;;;12.70;99.90;;;;;;5101323;28;20035;-74
2021/05/24 01:51:07;;;;;;;1.33;0.90;;;12.70;99.90;;;;;;5112267;28;20042;-76
2021/05/24 01:53:35;;;;;;;1.75;0.85;;;12.70;99.90;;;;;;5112446;28;20027;-75
2021/05/24 01:56:03;;;;;;;1.45;0.85;;;13.00;99.90;;;;;;5099126;28;20177;-76
2021/05/24 01:58:30;;;;;;;2.05;0.93;;;12.70;99.90;;;;;;5112188;28;20015;-76
2021/05/24 02:01:08;;;;;;;5.07;1.10;;;12.70;99.90;;;;;;5112188;28;20027;-76
2021/05/24 02:03:34;;;;;;;1.45;0.85;;;12.70;99.90;;;;;;5112842;28;20023;-75
2021/05/24 02:06:02;;;;;;;1.77;0.75;;;12.70;99.90;;;;;;5111312;28;20076;-76
2021/05/24 02:08:28;;;;;;;1.98;0.82;;;12.70;99.90;;;;;;5093969;28;20024;-76
2021/05/24 02:10:54;;;;;;;1.38;1.05;;;12.70;99.90;;;;;;5112643;28;20024;-75
2021/05/24 02:13:20;;;;;;;2.97;1.00;;;12.70;99.90;;;;;;5112636;28;20042;-76
2021/05/24 02:15:45;;;;;;;3.83;0.68;;;12.70;99.90;;;;;;5112374;28;20471;-76
2021/05/24 02:18:11;;;;;;;2.80;0.70;;;12.70;99.90;;;;;;5112367;28;20023;-76
2021/05/24 02:20:37;;;;;;;0.90;0.70;;;12.70;99.90;;;;;;5112592;28;20729;-76
2021/05/24 02:23:05;;;;;;;3.38;0.73;;;12.70;99.90;;;;;;5100587;28;20020;-76
2021/05/24 02:25:30;;;;;;;3.90;0.70;;;12.60;99.90;;;;;;5110291;28;20019;-76
2021/05/24 02:27:56;;;;;;;1.83;0.50;;;12.70;99.90;;;;;;5112028;28;20524;-76
2021/05/24 02:30:24;;;;;;;1.40;0.75;;;12.70;99.90;;;;;;5112765;28;20085;-76
2021/05/24 02:32:50;;;;;;;1.00;0.77;;;12.70;99.90;;;;;;5112965;28;20050;-76
2021/05/24 02:35:19;;;;;;;4.75;0.85;;;12.70;99.90;;;;;;5113696;28;20050;-76
2021/05/24 02:37:46;;;;;;;1.10;0.60;;;12.80;99.90;;;;;;5114734;28;20100;-76
2021/05/24 02:40:14;;;;;;;2.42;0.80;;;12.80;99.90;;;;;;5096145;28;20020;-76
2021/05/24 02:42:40;;;;;;;0.73;0.50;;;12.80;99.90;;;;;;5113736;28;20024;-76
2021/05/24 02:45:08;;;;;;;1.73;0.40;;;12.80;99.90;;;;;;5112380;28;20024;-76
2021/05/24 02:47:34;;;;;;;1.95;0.90;;;12.80;99.90;;;;;;5098472;28;20113;-76
2021/05/24 02:50:00;;;;;;;0.50;0.40;;;12.80;99.90;;;;;;5111036;28;20487;-76
2021/05/24 02:52:25;;;;;;;0.65;0.60;;;12.90;99.90;;;;;;5112203;28;20351;-76
2021/05/24 02:54:51;;;;;;;1.42;0.70;;;12.90;99.90;;;;;;5111718;28;20036;-75
2021/05/24 02:57:17;;;;;;;2.03;0.80;;;12.90;99.90;;;;;;5111785;28;20100;-76
2021/05/24 02:59:43;;;;;;;0.93;0.55;;;12.80;99.90;;;;;;5112259;28;20490;-74
2021/05/24 03:02:12;;;;;;;7.03;2.65;;;12.80;99.90;;;;;;5111852;28;20098;-74
2021/05/24 03:04:38;;;;;;;0.82;0.80;;;12.70;99.90;;;;;;5111540;28;20038;-75
2021/05/24 03:07:05;;;;;;;3.13;0.80;;;12.50;99.90;;;;;;5098250;28;20020;-73
2021/05/24 03:09:31;;;;;;;0.70;0.60;;;12.60;99.90;;;;;;5116271;28;20051;-77
2021/05/24 03:11:56;;;;;;;1.08;0.60;;;12.50;99.90;;;;;;5115065;28;20015;-75
2021/05/24 03:14:22;;;;;;;0.90;0.80;;;12.40;99.90;;;;;;5112138;28;20057;-75
2021/05/24 03:16:47;;;;;;;2.10;0.90;;;12.40;99.90;;;;;;5094297;28;20104;-76
2021/05/24 03:19:13;;;;;;;5.63;1.15;;;12.30;99.90;;;;;;5115234;28;20407;-75
2021/05/24 03:21:39;;;;;;;3.00;1.17;;;12.20;99.90;;;;;;5115858;28;20465;-75
2021/05/24 03:24:05;;;;;;;2.00;0.90;;;12.20;99.90;;;;;;5100931;28;20520;-76
2021/05/24 03:26:30;;;;;;;1.08;0.90;;;12.10;99.90;;;;;;5115784;28;20041;-76
2021/05/24 03:28:56;;;;;;;1.30;0.90;;;12.00;99.90;;;;;;5100809;28;20147;-76
2021/05/24 03:31:21;;;;;;;3.00;1.00;;;12.00;99.90;;;;;;5115196;28;20028;-76
2021/05/24 03:33:47;;;;;;;2.90;1.00;;;12.00;99.90;;;;;;5114796;28;20551;-75
2021/05/24 03:36:13;;;;;;;1.50;0.90;;;11.90;99.90;;;;;;5114757;28;20107;-76
2021/05/24 03:38:38;;;;;;;1.75;0.88;;;11.90;99.90;;;;;;5114499;28;20019;-76
2021/05/24 03:41:04;;;;;;;5.00;0.98;;;11.90;99.90;;;;;;5114682;28;20064;-74
2021/05/24 03:43:30;;;;;;;1.23;0.88;;;11.80;99.90;;;;;;5114897;28;20042;-75
2021/05/24 03:45:56;;;;;;;2.58;0.88;;;11.80;99.90;;;;;;5114077;28;20020;-75
2021/05/24 03:48:22;;;;;;;5.07;0.80;;;11.80;99.90;;;;;;5115112;28;20011;-74
2021/05/24 03:50:48;;;;;;;1.77;0.70;;;11.80;99.90;;;;;;5114365;28;20026;-76
2021/05/24 03:53:13;;;;;;;1.80;0.65;;;11.80;99.90;;;;;;5114420;28;20442;-75
2021/05/24 03:55:39;;;;;;;2.70;0.70;;;11.80;99.90;;;;;;5115029;28;20032;-78
2021/05/24 03:58:05;;;;;;;2.30;0.90;;;11.80;99.90;;;;;;5114652;28;20020;-76
2021/05/24 04:00:31;;;;;;;1.33;0.70;;;11.80;99.90;;;;;;5114238;28;20111;-76
2021/05/24 04:02:57;;;;;;;0.68;0.50;;;11.70;99.90;;;;;;5114501;28;20076;-77
2021/05/24 04:05:35;;;;;;;1.05;0.70;;;11.70;99.90;;;;;;5114870;28;20024;-73
2021/05/24 04:08:02;;;;;;;1.63;0.77;;;11.70;99.90;;;;;;5114240;28;20167;-74
2021/05/24 04:10:34;;;;;;;3.13;0.90;;;11.70;99.90;;;;;;5115082;28;20364;-73
2021/05/24 04:12:59;;;;;;;1.38;0.90;;;11.70;99.90;;;;;;5114728;28;20031;-76
2021/05/24 04:15:25;;;;;;;1.58;0.90;;;11.70;99.90;;;;;;5109278;28;20032;-77
2021/05/24 04:17:54;;;;;;;1.48;0.70;;;11.70;99.90;;;;;;5105202;28;20027;-77
2021/05/24 04:20:20;;;;;;;2.15;0.65;;;11.70;99.90;;;;;;5114483;28;20383;-75
2021/05/24 04:22:45;;;;;;;0.93;0.70;;;11.70;99.90;;;;;;5114698;28;20494;-77
2021/05/24 04:25:12;;;;;;;2.25;0.77;;;11.70;99.90;;;;;;5114194;28;20020;-76
2021/05/24 04:27:38;;;;;;;1.10;0.75;;;11.70;99.90;;;;;;5113775;28;20023;-76
2021/05/24 04:30:05;;;;;;;1.30;0.68;;;11.60;99.90;;;;;;5113540;28;20080;-76
2021/05/24 04:32:30;;;;;;;1.25;0.70;;;11.70;99.90;;;;;;5114237;28;20076;-76
2021/05/24 04:34:56;;;;;;;0.98;0.70;;;11.70;99.90;;;;;;5113573;28;20438;-76
2021/05/24 04:37:21;;;;;;;1.67;0.70;;;11.70;99.90;;;;;;5114542;28;20410;-76
2021/05/24 04:39:47;;;;;;;1.15;0.68;;;11.70;99.90;;;;;;5114052;28;20020;-76
2021/05/24 04:42:13;;;;;;;2.15;0.52;;;11.70;99.90;;;;;;5113658;28;20027;-76
2021/05/24 04:44:39;;;;;;;1.83;0.68;;;11.70;99.90;;;;;;5114489;28;20058;-76
2021/05/24 04:47:05;;;;;;;1.00;0.65;;;11.70;99.90;;;;;;5104435;28;20023;-76
2021/05/24 04:49:33;;;;;;;0.85;0.60;;;11.70;99.90;;;;;;5109480;28;20020;-76
2021/05/24 04:52:00;;;;;;;0.73;0.60;;;11.70;99.90;;;;;;5114137;28;20019;-76
2021/05/24 04:54:26;;;;;;;1.35;0.60;;;11.70;99.90;;;;;;5114169;28;20664;-77
2021/05/24 04:56:52;;;;;;;1.70;0.80;;;11.80;99.90;;;;;;5116896;28;20171;-76
2021/05/24 04:59:18;;;;;;;1.73;0.47;;;11.80;99.90;;;;;;5120746;28;20092;-76
2021/05/24 05:01:43;;;;;;;0.80;0.60;;;11.70;99.90;;;;;;5119060;28;20103;-76
2021/05/24 05:04:09;;;;;;;1.17;0.80;;;11.80;99.90;;;;;;5113493;28;20023;-75
2021/05/24 05:06:34;;;;;;;0.95;0.63;;;11.70;99.90;;;;;;5111786;28;20031;-76
2021/05/24 05:09:00;;;;;;;1.23;0.90;;;11.80;99.90;;;;;;5101307;28;20130;-75
2021/05/24 05:11:26;;;;;;;1.10;0.70;;;11.80;99.90;;;;;;5113695;28;20051;-75
2021/05/24 05:13:51;;;;;;;17.63;3.75;;;11.80;99.90;;;;;;5113381;28;20050;-77
2021/05/24 05:16:17;;;;;;;1.02;0.77;;;11.90;99.90;;;;;;5113416;28;20023;-76
2021/05/24 05:18:42;;;;;;;2.20;0.80;;;11.80;99.90;;;;;;5113048;28;20015;-76
2021/05/24 05:21:08;;;;;;;0.80;0.80;;;11.90;99.90;;;;;;5113376;28;20031;-75
2021/05/24 05:23:33;;;;;;;1.60;1.50;;;11.80;99.90;;;;;;5113649;28;20384;-75
2021/05/24 05:25:59;;;;;;;1.52;1.10;;;11.80;99.90;;;;;;5113086;28;20034;-75
2021/05/24 05:28:25;;;;;;;0.80;0.80;;;11.80;99.90;;;;;;5113108;28;20023;-76
2021/05/24 05:30:51;;;;;;;1.67;0.93;;;11.80;99.90;;;;;;5112558;28;20035;-75
2021/05/24 05:33:17;;;;;;;1.52;1.00;;;11.80;99.90;;;;;;5113653;28;20023;-76
2021/05/24 05:35:46;;;;;;;1.27;0.88;;;11.80;99.90;;;;;;5112847;28;20181;-76
2021/05/24 05:38:12;;;;;;;1.15;0.90;;;11.80;99.90;;;;;;5112958;28;20436;-76
2021/05/24 05:40:42;;;;;;;1.85;0.77;;;11.80;99.90;;;;;;5112982;28;20551;-76
2021/05/24 05:43:08;;;;;;;1.40;0.80;;;11.80;99.90;;;;;;5112700;28;20039;-75
2021/05/24 05:45:33;;;;;;;3.65;0.82;;;12.30;99.90;;;;;;5112894;28;20019;-76
2021/05/24 05:48:00;;;;;;;1.20;0.90;;;11.80;99.90;;;;;;5098477;28;20106;-76
2021/05/24 05:50:27;;;;;;;2.95;1.10;;;11.80;99.90;;;;;;5112922;28;20511;-76
2021/05/24 05:52:52;;;;;;;2.92;1.00;;;11.80;99.90;;;;;;5098055;28;20137;-75
2021/05/24 05:55:18;;;;;;;1.83;0.80;;;11.90;99.90;;;;;;5113077;28;20383;-76
2021/05/24 05:57:43;;;;;;;1.90;1.15;;;11.90;99.90;;;;;;5112729;28;20382;-76
2021/05/24 06:00:10;;;;;;;1.27;1.00;;;11.90;99.90;;;;;;5108332;28;20387;-76
2021/05/24 06:02:35;;;;;;;1.70;0.80;;;12.00;99.90;;;;;;5092595;28;20016;-77
2021/05/24 06:05:02;;;;;;;1.77;0.90;;;12.00;99.90;;;;;;5100678;27;20407;-77
2021/05/24 06:07:28;;;;;;;1.70;1.27;;;12.10;99.90;;;;;;5095358;27;20031;-75
2021/05/24 06:09:53;;;;;;;1.02;0.90;;;12.10;99.90;;;;;;5098600;27;20345;-75
2021/05/24 06:12:19;;;;;;;2.50;0.90;;;12.20;99.90;;;;;;5093981;28;20355;-75
2021/05/24 06:14:45;;;;;;;1.38;1.00;;;12.20;99.90;;;;;;5095614;27;20041;-74
2021/05/24 06:17:10;;;;;;;1.92;1.00;;;12.20;99.90;;;;;;5098233;28;20020;-77
2021/05/24 06:19:36;;;;;;;2.97;1.20;;;12.20;99.90;;;;;;5094884;28;20028;-75
2021/05/24 06:22:01;;;;;;;1.92;0.90;;;12.20;99.90;;;;;;5097450;28;20471;-75
2021/05/24 06:24:27;;;;;;;1.02;0.93;;;12.20;99.90;;;;;;5100701;28;20403;-75
2021/05/24 06:26:55;;;;;;;7.07;1.70;;;12.20;99.90;;;;;;5094837;28;20058;-76
2021/05/24 06:29:23;;;;;;;4.63;0.93;;;12.20;99.90;;;;;;5100320;28;20031;-76
2021/05/24 06:31:51;;;;;;;3.85;0.85;;;12.20;99.90;;;;;;5094758;28;20357;-76
2021/05/24 06:34:16;;;;;;;2.05;1.08;;;12.20;99.90;;;;;;5101782;28;20109;-76
2021/05/24 06:36:42;;;;;;;1.70;0.82;;;12.30;99.90;;;;;;5092556;28;20071;-77
2021/05/24 06:39:08;;;;;;;2.53;1.02;;;12.40;99.90;;;;;;5105974;28;20487;-75
2021/05/24 06:41:33;;;;;;;2.05;0.93;;;12.40;99.90;;;;;;5100935;28;20479;-75
2021/05/24 06:43:59;;;;;;;2.15;1.10;;;12.50;99.90;;;;;;5123414;28;20463;-75
2021/05/24 06:46:26;;;;;;;2.10;0.90;;;12.50;99.90;;;;;;5118423;28;20384;-73
2021/05/24 06:48:51;;;;;;;3.47;1.27;;;12.60;99.90;;;;;;5107974;28;20029;-76
2021/05/24 06:51:17;;;;;;;5.03;2.03;;;12.60;99.90;;;;;;5116600;28;20031;-75
2021/05/24 06:53:43;;;;;;;2.50;1.05;;;12.60;99.90;;;;;;5116334;28;20059;-75
2021/05/24 06:56:09;;;;;;;3.53;1.50;;;12.70;99.90;;;;;;5116052;28;20114;-76
2021/05/24 06:58:34;;;;;;;5.10;1.20;;;12.70;99.90;;;;;;5117347;28;20026;-77
2021/05/24 07:01:00;;;;;;;2.45;1.80;;;12.70;99.90;;;;;;5116450;28;20028;-75
2021/05/24 07:03:25;;;;;;;1.30;1.20;;;12.70;99.90;;;;;;5115872;28;20064;-75
2021/05/24 07:05:51;;;;;;;0.98;0.70;;;12.70;99.90;;;;;;5115870;28;20027;-75
2021/05/24 07:08:16;;;;;;;0.80;0.75;;;12.60;99.90;;;;;;5115903;28;20028;-74
2021/05/24 07:10:42;;;;;;;3.05;1.17;;;12.60;99.90;;;;;;5115486;28;20042;-77
2021/05/24 07:13:08;;;;;;;1.42;0.93;;;12.40;99.90;;;;;;5115843;28;20356;-77
2021/05/24 07:15:33;;;;;;;1.52;0.80;;;12.50;99.90;;;;;;5116021;28;20100;-77
2021/05/24 07:17:59;;;;;;;1.50;1.30;;;12.50;99.90;;;;;;5110965;28;20039;-77
2021/05/24 07:20:25;;;;;;;0.90;0.80;;;12.50;99.90;;;;;;5111797;27;20045;-78
2021/05/24 07:22:50;;;;;;;1.60;0.90;;;12.50;99.90;;;;;;5127629;27;20027;-76
2021/05/24 07:25:16;;;;;;;1.35;0.75;;;12.50;99.90;;;;;;5108842;27;20455;-77
2021/05/24 07:27:43;;;;;;;1.58;1.23;;;12.40;99.90;;;;;;5118862;27;20075;-78
2021/05/24 07:30:09;;;;;;;1.98;0.80;;;12.50;99.90;;;;;;5118431;27;20387;-77
2021/05/24 07:32:35;;;;;;;3.72;1.00;;;12.40;99.90;;;;;;5124776;27;20030;-77
2021/05/24 07:35:01;;;;;;;1.35;0.85;;;12.50;99.90;;;;;;5117588;27;20032;-78
2021/05/24 07:37:27;;;;;;;1.05;0.82;;;12.50;99.90;;;;;;5114178;27;20386;-77
2021/05/24 07:39:52;;;;;;;1.58;0.98;;;12.50;99.90;;;;;;5116454;27;20020;-77
2021/05/24 07:42:18;;;;;;;1.20;1.10;;;12.50;99.90;;;;;;5112136;27;20512;-78
2021/05/24 07:44:44;;;;;;;1.40;1.05;;;12.50;99.90;;;;;;5115549;27;20055;-77
2021/05/24 07:47:09;;;;;;;4.35;0.85;;;12.60;99.90;;;;;;5109847;28;20020;-77
2021/05/24 07:49:35;;;;;;;1.48;1.25;;;12.70;99.90;;;;;;5100092;27;20055;-76
2021/05/24 07:52:01;;;;;;;1.90;1.05;;;12.70;99.90;;;;;;5122682;27;20038;-77
2021/05/24 07:54:26;;;;;;;1.63;0.98;;;12.80;99.90;;;;;;5120505;27;20018;-78
2021/05/24 07:56:52;;;;;;;3.63;1.10;;;12.90;99.90;;;;;;5125375;27;20096;-78
2021/05/24 07:59:18;;;;;;;2.88;1.20;;;12.90;99.90;;;;;;5119104;27;20024;-79
2021/05/24 08:01:44;;;;;;;2.22;0.93;;;12.90;99.90;;;;;;5121468;27;20019;-78
2021/05/24 08:04:10;;;;;;;3.17;1.02;;;12.90;99.90;;;;;;5127891;27;20098;-77
2021/05/24 08:06:36;;;;;;;1.40;0.88;;;12.90;99.90;;;;;;5122804;27;20048;-77
2021/05/24 08:09:02;;;;;;;4.55;0.98;;;12.90;99.90;;;;;;5121947;27;20634;-77
2021/05/24 08:11:28;;;;;;;2.58;1.10;;;12.90;99.90;;;;;;5109472;27;20380;-77
2021/05/24 08:13:57;;;;;;;3.70;0.90;;;12.90;99.90;;;;;;5107940;27;20028;-77
2021/05/24 08:16:23;;;;;;;1.77;1.10;;;13.00;99.90;;;;;;5098121;27;20036;-76
2021/05/24 08:18:49;;;;;;;4.85;0.70;;;13.00;99.90;;;;;;5095616;28;20432;-78
2021/05/24 08:21:17;;;;;;;1.98;1.27;;;13.10;99.90;;;;;;5095103;27;20024;-76
2021/05/24 08:23:43;;;;;;;2.30;1.00;;;13.10;99.90;;;;;;5106605;27;20020;-76
2021/05/24 08:26:10;;;;;;;1.83;1.10;;;13.10;99.90;;;;;;5106544;27;20081;-76
2021/05/24 08:28:35;;;;;;;1.80;0.80;;;13.10;99.90;;;;;;5114363;27;20024;-76
2021/05/24 08:31:02;;;;;;;2.50;1.20;;;13.10;99.90;;;;;;5108209;27;20019;-76
2021/05/24 08:33:31;;;;;;;2.40;1.35;;;13.10;99.90;;;;;;5105129;27;20032;-77
2021/05/24 08:35:57;;;;;;;2.28;1.35;;;13.20;99.90;;;;;;5108017;27;20062;-76
2021/05/24 08:38:23;;;;;;;1.30;1.20;;;13.20;99.90;;;;;;5132104;27;20043;-77
2021/05/24 08:40:49;;;;;;;2.58;1.27;;;13.20;99.90;;;;;;5130881;27;20020;-76
2021/05/24 08:43:17;;;;;;;1.35;1.00;;;13.30;99.90;;;;;;5125086;27;20542;-77
2021/05/24 08:45:43;;;;;;;2.58;1.00;;;13.30;99.90;;;;;;5117774;27;20451;-77
2021/05/24 08:48:11;;;;;;;1.60;1.10;;;13.50;99.90;;;;;;5108096;28;20020;-78
2021/05/24 08:50:38;;;;;;;3.63;1.38;;;13.50;99.90;;;;;;5098543;27;20028;-77
2021/05/24 08:53:08;;;;;;;3.63;1.08;;;13.70;99.90;;;;;;5097767;27;20058;-77
2021/05/24 08:55:34;;;;;;;1.35;1.25;;;13.80;99.90;;;;;;5100020;27;20062;-77
2021/05/24 08:58:00;;;;;;;2.80;1.00;;;13.80;99.90;;;;;;5113601;27;20382;-76
2021/05/24 09:00:26;;;;;;;4.78;1.00;;;13.90;99.90;;;;;;5099636;27;20031;-75
2021/05/24 09:02:54;;;;;;;1.65;1.10;;;13.90;99.90;;;;;;5098174;27;20055;-76
2021/05/24 09:05:20;;;;;;;1.35;1.25;;;13.90;99.90;;;;;;5100131;27;20483;-77
2021/05/24 09:08:03;;;;;;;1.10;1.00;;;13.90;99.90;;;;;;5098586;27;20060;-72
2021/05/24 09:10:30;;;;;;;2.03;1.35;;;13.90;99.90;;;;;;5097690;27;20032;-76
2021/05/24 09:12:57;;;;;;;1.90;1.08;;;14.00;99.90;;;;;;5095810;28;20031;-77
2021/05/24 09:15:26;;;;;;;1.77;1.30;;;14.00;99.90;;;;;;5102423;27;20037;-76
2021/05/24 09:17:59;;;;;;;1.98;0.90;;;14.00;99.90;;;;;;5106203;27;20015;-76
2021/05/24 09:20:31;;;;;;;1.52;1.00;;;14.10;99.90;;;;;;5127833;27;20057;-76
2021/05/24 09:23:14;;;;;;;2.80;1.00;;;14.10;99.90;;;;;;5129531;27;20023;-76
2021/05/24 09:26:06;;;;;;;1.15;1.08;;;14.20;99.90;;;;;;5121407;27;20110;-76
2021/05/24 09:28:40;;;;;;;2.53;1.10;;;14.20;99.90;;;;;;5117352;27;20100;-76
2021/05/24 09:31:26;;;;;;;1.88;0.93;;;14.20;99.90;;;;;;5093392;27;20047;-74
2021/05/24 09:33:53;;;;;;;1.70;1.10;;;14.20;99.90;;;;;;5094276;27;20024;-76
2021/05/24 09:36:20;;;;;;;1.92;1.10;;;14.10;99.90;;;;;;5093962;27;20499;-76
2021/05/24 09:38:58;;;;;;;1.10;0.90;;;14.10;99.90;;;;;;5094383;27;20511;-76
2021/05/24 09:41:24;;;;;;;3.47;1.00;;;14.10;99.90;;;;;;5104593;28;20111;-75
2021/05/24 09:43:52;;;;;;;0.85;0.73;;;14.10;99.90;;;;;;5111578;27;20055;-77
2021/05/24 09:46:20;;;;;;;2.17;1.13;;;14.00;99.90;;;;;;5097811;28;20081;-75
2021/05/24 09:48:52;;;;;;;1.48;1.20;;;14.00;99.90;;;;;;5102689;28;20076;-75
2021/05/24 09:51:24;;;;;;;2.47;1.30;;;13.90;99.90;;;;;;5113125;28;20043;-75
2021/05/24 09:54:31;;;;;;;3.72;1.20;;;13.80;99.90;;;;;;5113940;28;20030;-75
2021/05/24 09:56:59;;;;;;;1.95;1.20;;;13.80;99.90;;;;;;5113204;28;20082;-75
2021/05/24 09:59:26;;;;;;;1.83;1.15;;;13.90;99.90;;;;;;5113717;28;20103;-75
2021/05/24 10:01:55;;;;;;;2.22;1.15;;;14.00;99.90;;;;;;5102752;28;20033;-76
2021/05/24 10:04:30;;;;;;;0.95;0.80;;;14.10;99.90;;;;;;5098931;28;20390;-76
2021/05/24 10:06:56;;;;;;;2.33;1.17;;;14.30;99.90;;;;;;5096709;28;20111;-76
2021/05/24 10:09:22;;;;;;;1.48;1.00;;;14.30;99.90;;;;;;5110714;28;20020;-75
2021/05/24 10:11:51;;;;;;;1.25;1.00;;;14.40;99.90;;;;;;5103789;28;20028;-76
2021/05/24 10:14:21;;;;;;;1.25;0.90;;;14.40;99.90;;;;;;5110311;27;20023;-76
2021/05/24 10:16:56;;;;;;;1.13;0.95;;;14.30;99.90;;;;;;5116266;27;20202;-74
2021/05/24 10:19:22;;;;;;;1.20;1.10;;;14.30;99.90;;;;;;5122831;27;20079;-76
2021/05/24 10:21:49;;;;;;;1.67;0.90;;;14.30;99.90;;;;;;5112727;28;20409;-75
2021/05/24 10:24:18;;;;;;;2.50;1.38;;;14.30;99.90;;;;;;5122931;28;20023;-76
2021/05/24 10:26:45;;;;;;;2.47;1.40;;;14.30;99.90;;;;;;5120708;27;20039;-75
2021/05/24 10:29:12;;;;;;;1.48;1.00;;;14.40;99.90;;;;;;5114167;27;20407;-75
2021/05/24 10:31:38;;;;;;;1.67;1.00;;;14.30;99.90;;;;;;5119152;27;20369;-74
2021/05/24 10:34:19;;;;;;;2.05;1.10;;;14.30;99.90;;;;;;5121965;27;20019;-76
2021/05/24 10:37:03;;;;;;;1.40;1.00;;;14.40;99.90;;;;;;5118127;27;20051;-72
2021/05/24 10:39:44;;;;;;;3.50;1.00;;;14.40;99.90;;;;;;5113856;27;20073;-75
2021/05/24 10:42:11;;;;;;;;;;;14.50;99.90;;;;;;5114284;27;20031;-74
2021/05/24 10:44:43;;;;;;;2.53;1.30;;;14.70;99.90;;;;;;5098939;27;19904;-77
2021/05/24 10:47:25;;;;;;;1.85;1.20;;;14.80;99.90;;;;;;5110817;27;20027;-75
2021/05/24 10:50:03;;;;;;;1.40;1.25;;;14.90;99.90;;;;;;5111517;27;20031;-77
2021/05/24 10:52:31;;;;;;;1.38;1.27;;;15.10;99.90;;;;;;5099270;27;20047;-77
2021/05/24 10:54:57;;;;;;;1.95;1.40;;;15.10;99.90;;;;;;5101625;27;20023;-75
2021/05/24 10:57:23;;;;;;;1.73;1.10;;;15.10;99.90;;;;;;5106644;28;20529;-76
2021/05/24 10:59:52;;;;;;;1.65;1.30;;;15.20;99.90;;;;;;5110049;27;20024;-76
2021/05/24 11:02:28;;;;;;;1.42;1.30;;;15.20;99.90;;;;;;5096160;27;20104;-76
2021/05/24 11:05:16;;;;;;;2.17;1.20;;;15.20;99.90;;;;;;5105942;27;20020;-78
2021/05/24 11:07:47;;;;;;;1.70;1.42;;;15.20;99.90;;;;;;5102269;27;20032;-75
2021/05/24 11:10:17;;;;;;;1.50;1.10;;;15.10;99.90;;;;;;5108064;27;20104;-75
2021/05/24 11:12:43;;;;;;;2.08;1.30;;;15.10;99.90;;;;;;5102366;27;20024;-75
2021/05/24 11:15:10;;;;;;;2.53;1.10;;;15.00;99.90;;;;;;5113384;27;20024;-75
2021/05/24 11:17:58;;;;;;;1.30;1.10;;;15.00;99.90;;;;;;5110696;27;20031;-77
2021/05/24 11:20:46;;;;;;;1.25;1.13;;;15.10;99.90;;;;;;5112177;27;20225;-77
2021/05/24 11:26:00;;;;;;;3.17;2.25;;;15.60;99.90;;;;;;5118039;27;20439;-77
2021/05/24 11:28:36;;;;;;;2.30;1.20;;;15.80;99.90;;;;;;5106973;27;20130;-76
2021/05/24 11:31:10;;;;;;;2.33;1.38;;;15.80;99.90;;;;;;5106195;27;20019;-76
2021/05/24 11:33:41;;;;;;;4.35;1.27;;;15.80;99.90;;;;;;5107601;27;20486;-77
2021/05/24 11:36:08;;;;;;;2.28;1.50;;;15.90;99.90;;;;;;5115525;27;20087;-76
2021/05/24 11:38:34;;;;;;;1.58;1.40;;;16.00;99.90;;;;;;5102234;28;20471;-76
2021/05/24 11:41:14;;;;;;;1.55;1.45;;;16.20;99.90;;;;;;5117331;27;20023;-75
2021/05/24 11:43:52;;;;;;;2.30;1.05;;;16.40;99.90;;;;;;5106649;27;20487;-76
2021/05/24 11:46:18;;;;;;;2.45;1.35;;;16.60;99.90;;;;;;5103223;27;20114;-76
2021/05/24 11:48:44;;;;;;;2.05;1.40;;;16.70;99.90;;;;;;5104051;28;20044;-76
2021/05/24 11:51:14;;;;;;;2.13;1.40;;;16.80;99.90;;;;;;5114561;28;20020;-76
2021/05/24 11:54:21;;;;;;;3.00;1.25;;;16.80;99.90;;;;;;5115488;28;20095;-75
2021/05/24 11:56:48;;;;;;;1.42;1.10;;;16.60;99.90;;;;;;5114633;28;20031;-77
2021/05/24 11:59:16;;;;;;;1.73;1.20;;;16.40;99.90;;;;;;5102884;28;20020;-75
2021/05/24 12:01:44;;;;;;;1.13;0.98;;;16.20;99.90;;;;;;5112450;28;20479;-76
2021/05/24 12:04:16;;;;;;;1.40;1.30;;;16.10;99.90;;;;;;5114520;28;20020;-76
2021/05/24 12:06:51;;;;;;;3.45;1.40;;;16.10;99.90;;;;;;5114231;28;20027;-76
2021/05/24 12:09:35;;;;;;;1.52;1.33;;;16.10;99.90;;;;;;5114736;28;20471;-77
2021/05/24 12:12:03;;;;;;;1.75;1.20;;;16.00;99.90;;;;;;5114079;28;20019;-76
2021/05/24 12:14:28;;;;;;;2.15;1.25;;;16.00;99.90;;;;;;5114577;28;20107;-76
2021/05/24 12:16:54;;;;;;;1.45;1.10;;;15.90;99.90;;;;;;5102215;28;20132;-76
2021/05/24 12:19:24;;;;;;;2.05;1.20;;;15.80;99.90;;;;;;5106004;27;20031;-76
2021/05/24 12:21:51;;;;;;;1.35;1.25;;;15.70;99.90;;;;;;5101103;27;20050;-76
2021/05/24 12:24:18;;;;;;;3.40;1.20;;;15.60;99.90;;;;;;5098284;27;20030;-77
2021/05/24 12:26:55;;;;;;;1.20;1.10;;;15.60;99.90;;;;;;5108295;27;20032;-78
2021/05/24 12:29:27;;;;;;;2.13;1.17;;;15.50;99.90;;;;;;5109985;27;20012;-77
2021/05/24 12:31:55;;;;;;;1.42;1.05;;;15.60;99.90;;;;;;5104953;27;20107;-77
2021/05/24 12:34:35;;;;;;;1.40;1.13;;;15.70;99.90;;;;;;5109051;27;20038;-77
2021/05/24 12:37:03;;;;;;;1.13;1.03;;;16.00;99.90;;;;;;5103844;27;20096;-76
2021/05/24 12:39:32;;;;;;;2.30;1.73;;;16.30;99.90;;;;;;5100082;27;20016;-76
2021/05/24 12:41:59;;;;;;;1.67;1.52;;;16.50;99.90;;;;;;5108216;27;20030;-76
2021/05/24 12:44:26;;;;;;;1.33;1.15;;;16.80;99.90;;;;;;5100014;27;20039;-76
2021/05/24 12:46:56;;;;;;;1.85;1.45;;;17.10;99.90;;;;;;5095916;27;20486;-77
2021/05/24 12:49:32;;;;;;;3.60;1.15;;;17.20;99.90;;;;;;5107328;28;20016;-76
2021/05/24 12:52:00;;;;;;;1.30;1.20;;;17.20;99.90;;;;;;5100267;28;20028;-76
2021/05/24 12:54:26;;;;;;;2.15;1.30;;;17.00;99.90;;;;;;5104001;28;20020;-77